createdAt,value
2023-04-06T00:01:04.908Z,90.70
2023-04-06T00:03:32.185Z,90.90
2023-04-06T00:05:59.209Z,91.10
2023-04-06T00:08:27.298Z,91.20
2023-04-06T00:10:54.259Z,91.30
2023-04-06T00:13:21.595Z,91.50
2023-04-06T00:15:48.481Z,91.70
2023-04-06T00:18:15.694Z,92.00
2023-04-06T00:20:42.698Z,92.00
2023-04-06T00:23:09.950Z,92.10
2023-04-06T00:25:36.850Z,92.20
2023-04-06T00:28:04.970Z,92.30
2023-04-06T00:30:32.004Z,92.30
2023-04-06T00:32:58.944Z,92.40
2023-04-06T00:35:26.226Z,92.40
2023-04-06T00:37:53.238Z,92.50
2023-04-06T00:40:20.615Z,92.60
2023-04-06T00:42:47.962Z,92.60
2023-04-06T00:45:15.052Z,92.70
2023-04-06T00:47:42.214Z,93.00
2023-04-06T00:50:09.469Z,93.20
2023-04-06T00:52:36.797Z,93.20
2023-04-06T00:55:04.870Z,93.30
2023-04-06T00:57:32.807Z,93.30
2023-04-06T01:00:00.113Z,93.30
2023-04-06T01:02:27.293Z,93.20
2023-04-06T01:04:55.493Z,93.10
2023-04-06T01:07:22.523Z,93.10
2023-04-06T01:09:49.408Z,93.20
2023-04-06T01:12:16.407Z,93.30
2023-04-06T01:14:43.394Z,93.60
2023-04-06T01:17:10.316Z,93.80
2023-04-06T01:19:37.789Z,94.40
2023-04-06T01:22:04.953Z,95.10
2023-04-06T01:24:31.978Z,95.00
2023-04-06T01:26:58.924Z,95.30
2023-04-06T01:29:26.498Z,95.60
2023-04-06T01:31:53.503Z,95.90
2023-04-06T01:34:21.147Z,96.30
2023-04-06T01:36:48.097Z,96.50
2023-04-06T01:39:15.061Z,96.90
2023-04-06T01:41:42.116Z,97.30
2023-04-06T01:44:09.085Z,97.80
2023-04-06T01:46:36.038Z,97.60
2023-04-06T01:49:02.990Z,98.00
2023-04-06T01:51:29.898Z,98.10
2023-04-06T01:53:56.856Z,98.40
2023-04-06T01:56:23.903Z,98.60
2023-04-06T01:58:50.845Z,99.00
2023-04-06T02:01:18.216Z,99.10
2023-04-06T02:03:45.214Z,99.20
2023-04-06T02:06:12.475Z,99.50
2023-04-06T02:08:39.370Z,99.60
2023-04-06T02:11:06.544Z,99.70
2023-04-06T02:13:33.479Z,99.90
2023-04-06T02:16:00.443Z,99.90
2023-04-06T02:18:27.507Z,99.90
2023-04-06T02:20:54.549Z,99.90
2023-04-06T02:23:21.436Z,99.90
2023-04-06T02:25:48.446Z,99.90
2023-04-06T02:28:15.713Z,99.90
2023-04-06T02:30:42.660Z,99.90
2023-04-06T02:33:09.643Z,99.90
2023-04-06T02:35:36.724Z,99.90
2023-04-06T02:38:03.685Z,99.90
2023-04-06T02:40:30.674Z,99.90
2023-04-06T02:42:57.566Z,99.90
2023-04-06T02:45:24.452Z,99.90
2023-04-06T02:47:51.597Z,99.90
2023-04-06T02:50:18.547Z,99.90
2023-04-06T02:52:45.616Z,99.90
2023-04-06T02:55:12.761Z,99.90
2023-04-06T02:57:39.692Z,99.90
2023-04-06T03:00:07.802Z,99.90
2023-04-06T03:02:34.820Z,99.90
2023-04-06T03:05:02.044Z,99.90
2023-04-06T03:07:29.273Z,99.90
2023-04-06T03:09:56.228Z,99.90
2023-04-06T03:12:23.169Z,99.90
2023-04-06T03:14:50.102Z,99.90
2023-04-06T03:17:17.027Z,99.90
2023-04-06T03:19:43.992Z,99.90
2023-04-06T03:22:11.230Z,99.90
2023-04-06T03:24:38.230Z,99.90
2023-04-06T03:27:05.322Z,99.90
2023-04-06T03:29:32.383Z,99.90
2023-04-06T03:31:59.395Z,99.90
2023-04-06T03:34:26.355Z,99.90
2023-04-06T03:37:03.205Z,99.90
2023-04-06T03:39:36.788Z,99.90
2023-04-06T03:42:03.817Z,99.90
2023-04-06T03:44:30.876Z,99.90
2023-04-06T03:46:57.968Z,99.90
2023-04-06T03:49:25.209Z,99.90
2023-04-06T03:51:52.123Z,99.90
2023-04-06T03:54:19.045Z,99.90
2023-04-06T03:56:45.942Z,99.90
2023-04-06T03:59:12.856Z,99.90
2023-04-06T04:01:40.527Z,99.90
2023-04-06T04:04:07.489Z,99.90
2023-04-06T04:06:34.435Z,99.90
2023-04-06T04:09:01.381Z,99.90
2023-04-06T04:11:28.333Z,99.90
2023-04-06T04:13:55.338Z,99.90
2023-04-06T04:16:22.290Z,99.90
2023-04-06T04:18:49.931Z,99.90
2023-04-06T04:21:16.893Z,99.90
2023-04-06T04:23:43.835Z,99.90
2023-04-06T04:26:11.231Z,99.90
2023-04-06T04:28:38.202Z,99.90
2023-04-06T04:31:05.526Z,99.90
2023-04-06T04:33:32.494Z,99.90
2023-04-06T04:35:59.420Z,99.90
2023-04-06T04:38:26.401Z,99.90
2023-04-06T04:40:53.284Z,99.90
2023-04-06T04:43:20.263Z,99.90
2023-04-06T04:45:47.239Z,99.90
2023-04-06T04:48:14.194Z,99.90
2023-04-06T04:50:41.068Z,99.90
2023-04-06T04:53:08.073Z,99.90
2023-04-06T04:55:35.006Z,99.90
2023-04-06T04:58:02.043Z,99.90
2023-04-06T05:00:29.242Z,99.90
2023-04-06T05:02:56.498Z,99.90
2023-04-06T05:05:23.440Z,99.90
2023-04-06T05:07:50.471Z,99.90
2023-04-06T05:10:17.455Z,99.90
2023-04-06T05:12:44.397Z,99.90
2023-04-06T05:15:11.817Z,99.90
2023-04-06T05:17:39.016Z,99.90
2023-04-06T05:20:06.961Z,99.90
2023-04-06T05:22:33.964Z,99.90
2023-04-06T05:25:01.053Z,99.90
2023-04-06T05:27:27.998Z,99.90
2023-04-06T05:29:56.741Z,99.90
2023-04-06T05:32:25.922Z,99.90
2023-04-06T05:34:53.074Z,99.90
2023-04-06T05:37:21.507Z,99.90
2023-04-06T05:39:48.736Z,99.90
2023-04-06T05:42:16.418Z,99.90
2023-04-06T05:44:43.494Z,99.90
2023-04-06T05:47:10.675Z,99.90
2023-04-06T05:49:37.639Z,99.90
2023-04-06T05:52:05.311Z,99.90
2023-04-06T05:54:32.400Z,99.90
2023-04-06T05:56:59.353Z,99.90
2023-04-06T05:59:26.423Z,99.90
2023-04-06T06:01:53.385Z,99.90
2023-04-06T06:04:21.603Z,99.90
2023-04-06T06:06:48.528Z,99.90
2023-04-06T06:09:16.441Z,99.90
2023-04-06T06:11:43.437Z,99.90
2023-04-06T06:14:10.415Z,99.90
2023-04-06T06:16:37.415Z,99.90
2023-04-06T06:19:04.480Z,99.90
2023-04-06T06:21:32.456Z,99.90
2023-04-06T06:23:59.357Z,99.90
2023-04-06T06:26:26.389Z,99.90
2023-04-06T06:28:53.353Z,99.90
2023-04-06T06:31:23.593Z,99.90
2023-04-06T06:33:53.731Z,99.90
2023-04-06T06:36:20.699Z,99.90
2023-04-06T06:38:47.644Z,99.90
2023-04-06T06:41:14.610Z,99.90
2023-04-06T06:43:41.623Z,99.90
2023-04-06T06:46:08.737Z,99.90
2023-04-06T06:48:36.975Z,99.90
2023-04-06T06:51:04.094Z,99.90
2023-04-06T06:53:31.054Z,99.90
2023-04-06T06:55:57.992Z,99.90
2023-04-06T06:58:25.002Z,99.90
2023-04-06T07:00:51.972Z,99.90
2023-04-06T07:03:18.987Z,99.90
2023-04-06T07:05:57.065Z,99.90
2023-04-06T07:08:25.300Z,99.90
2023-04-06T07:10:53.914Z,99.90
2023-04-06T07:13:24.132Z,99.90
2023-04-06T07:15:51.639Z,99.90
2023-04-06T07:18:19.670Z,99.90
2023-04-06T07:20:46.905Z,99.90
2023-04-06T07:23:13.923Z,99.90
2023-04-06T07:25:40.900Z,99.90
2023-04-06T07:28:08.012Z,99.90
2023-04-06T07:30:36.554Z,99.90
2023-04-06T07:33:04.129Z,99.90
2023-04-06T07:35:31.325Z,99.90
2023-04-06T07:37:59.074Z,99.90
2023-04-06T07:40:27.239Z,99.90
2023-04-06T07:42:56.180Z,99.90
2023-04-06T07:45:23.756Z,99.90
2023-04-06T07:47:51.118Z,99.90
2023-04-06T07:50:18.386Z,99.90
2023-04-06T07:52:45.564Z,99.90
2023-04-06T07:55:12.691Z,99.90
2023-04-06T07:57:39.679Z,99.90
2023-04-06T08:00:07.593Z,99.90
2023-04-06T08:02:34.667Z,99.90
2023-04-06T08:05:01.771Z,99.90
2023-04-06T08:07:28.787Z,99.90
2023-04-06T08:09:56.366Z,99.90
2023-04-06T08:12:23.299Z,99.90
2023-04-06T08:14:50.416Z,99.90
2023-04-06T08:17:17.321Z,99.90
2023-04-06T08:19:45.529Z,99.90
2023-04-06T08:22:12.902Z,99.90
2023-04-06T08:24:39.887Z,99.90
2023-04-06T08:27:06.960Z,99.90
2023-04-06T08:29:33.901Z,99.90
2023-04-06T08:32:01.287Z,99.90
2023-04-06T08:34:28.250Z,99.90
2023-04-06T08:36:55.378Z,99.90
2023-04-06T08:39:26.589Z,99.90
2023-04-06T08:41:57.985Z,99.90
2023-04-06T08:44:25.428Z,99.90
2023-04-06T08:46:54.011Z,99.90
2023-04-06T08:49:21.464Z,99.90
2023-04-06T08:51:48.850Z,99.90
2023-04-06T08:54:16.024Z,99.90
2023-04-06T08:56:43.757Z,99.90
2023-04-06T08:59:11.359Z,99.90
2023-04-06T09:01:44.092Z,99.90
2023-04-06T09:04:13.475Z,99.90
2023-04-06T09:06:41.843Z,99.90
2023-04-06T09:09:09.274Z,99.90
2023-04-06T09:12:07.183Z,99.90
2023-04-06T09:14:40.584Z,99.90
2023-04-06T09:17:07.889Z,99.90
2023-04-06T09:19:34.908Z,99.90
2023-04-06T09:22:08.207Z,99.90
2023-04-06T09:24:51.301Z,99.90
2023-04-06T09:27:18.524Z,99.90
2023-04-06T09:29:46.100Z,99.90
2023-04-06T09:32:17.553Z,99.90
2023-04-06T09:34:44.635Z,99.90
2023-04-06T09:37:16.517Z,99.90
2023-04-06T09:39:43.641Z,99.90
2023-04-06T09:42:10.995Z,99.90
2023-04-06T09:44:37.929Z,99.90
2023-04-06T09:47:08.109Z,99.90
2023-04-06T09:49:36.367Z,99.90
2023-04-06T09:52:05.808Z,99.90
2023-04-06T09:54:33.452Z,99.90
2023-04-06T09:57:22.794Z,99.90
2023-04-06T10:00:10.933Z,99.90
2023-04-06T10:02:40.873Z,99.90
2023-04-06T10:05:34.981Z,99.90
2023-04-06T10:08:09.866Z,99.90
2023-04-06T10:10:37.924Z,99.90
2023-04-06T10:13:08.725Z,99.90
2023-04-06T10:15:36.009Z,99.90
2023-04-06T10:18:04.757Z,99.90
2023-04-06T10:20:56.070Z,99.90
2023-04-06T10:23:39.545Z,99.90
2023-04-06T10:26:06.516Z,99.90
2023-04-06T10:28:36.678Z,99.90
2023-04-06T10:31:07.249Z,99.90
2023-04-06T10:33:34.664Z,99.90
2023-04-06T10:36:14.815Z,99.90
2023-04-06T10:38:43.512Z,99.90
2023-04-06T10:41:13.053Z,99.90
2023-04-06T10:43:42.266Z,99.90
2023-04-06T10:46:10.752Z,99.90
2023-04-06T10:48:46.657Z,99.90
2023-04-06T10:51:29.990Z,99.90
2023-04-06T10:53:57.918Z,99.90
2023-04-06T10:56:28.071Z,99.90
2023-04-06T10:58:58.822Z,99.90
2023-04-06T11:01:28.891Z,99.90
2023-04-06T11:03:59.241Z,99.90
2023-04-06T11:06:27.923Z,99.90
2023-04-06T11:08:56.215Z,99.90
2023-04-06T11:11:26.637Z,99.90
2023-04-06T11:13:56.181Z,99.90
2023-04-06T11:16:32.440Z,99.90
2023-04-06T11:19:02.599Z,99.90
2023-04-06T11:21:40.130Z,99.90
2023-04-06T11:24:10.544Z,99.90
2023-04-06T11:26:51.938Z,99.90
2023-04-06T11:29:20.805Z,99.90
2023-04-06T11:31:52.965Z,99.90
2023-04-06T11:34:22.071Z,99.90
2023-04-06T11:37:02.791Z,99.90
2023-04-06T11:39:31.375Z,99.90
2023-04-06T11:42:08.533Z,99.90
2023-04-06T11:44:43.824Z,99.90
2023-04-06T11:47:12.522Z,99.90
2023-04-06T11:49:42.017Z,99.90
2023-04-06T11:52:22.201Z,99.90
2023-04-06T11:54:50.549Z,99.90
2023-04-06T11:57:18.598Z,99.90
2023-04-06T11:59:46.270Z,99.90
2023-04-06T12:02:13.365Z,99.90
2023-04-06T12:04:40.795Z,99.90
2023-04-06T12:07:07.865Z,99.90
2023-04-06T12:09:37.030Z,99.90
2023-04-06T12:12:05.333Z,99.90
2023-04-06T12:14:32.614Z,99.90
2023-04-06T12:16:59.936Z,99.90
2023-04-06T12:19:27.132Z,99.90
2023-04-06T12:21:58.708Z,99.90
2023-04-06T12:24:26.603Z,99.90
2023-04-06T12:27:06.449Z,99.90
2023-04-06T12:29:36.670Z,99.90
2023-04-06T12:32:03.740Z,99.90
2023-04-06T12:34:31.196Z,99.90
2023-04-06T12:36:58.386Z,99.90
2023-04-06T12:39:26.487Z,99.90
2023-04-06T12:41:54.741Z,99.90
2023-04-06T12:44:22.017Z,99.90
2023-04-06T12:46:49.424Z,99.90
2023-04-06T12:49:18.221Z,99.90
2023-04-06T12:51:45.167Z,99.90
2023-04-06T12:54:12.967Z,99.90
2023-04-06T12:56:40.597Z,99.90
2023-04-06T12:59:07.841Z,99.90
2023-04-06T13:01:34.838Z,99.90
2023-04-06T13:04:01.863Z,99.90
2023-04-06T13:06:29.584Z,99.90
2023-04-06T13:08:56.581Z,99.90
2023-04-06T13:11:26.889Z,99.90
2023-04-06T13:13:55.110Z,99.90
2023-04-06T13:16:22.151Z,99.90
2023-04-06T13:18:49.089Z,99.90
2023-04-06T13:21:17.378Z,99.90
2023-04-06T13:23:45.270Z,99.90
2023-04-06T13:26:14.566Z,99.90
2023-04-06T13:28:42.019Z,99.90
2023-04-06T13:31:09.467Z,99.90
2023-04-06T13:33:36.951Z,99.90
2023-04-06T13:36:04.961Z,99.90
2023-04-06T13:38:32.042Z,99.90
2023-04-06T13:40:59.204Z,99.90
2023-04-06T13:43:27.751Z,99.90
2023-04-06T13:45:56.786Z,99.90
2023-04-06T13:48:24.059Z,99.90
2023-04-06T13:50:51.146Z,99.90
2023-04-06T13:53:18.156Z,99.90
2023-04-06T13:55:45.504Z,99.90
2023-04-06T13:58:12.914Z,99.90
2023-04-06T14:00:41.514Z,99.90
2023-04-06T14:03:08.579Z,99.90
2023-04-06T14:05:35.616Z,99.90
2023-04-06T14:08:03.352Z,99.90
2023-04-06T14:10:30.514Z,99.90
2023-04-06T14:12:59.199Z,99.90
2023-04-06T14:15:26.630Z,99.90
2023-04-06T14:17:53.649Z,99.90
2023-04-06T14:20:21.862Z,99.90
2023-04-06T14:22:50.484Z,99.90
2023-04-06T14:25:18.393Z,99.90
2023-04-06T14:27:45.679Z,99.90
2023-04-06T14:30:14.581Z,99.90
2023-04-06T14:32:41.946Z,99.90
2023-04-06T14:35:09.257Z,99.90
2023-04-06T14:37:36.166Z,99.90
2023-04-06T14:40:04.250Z,99.90
2023-04-06T14:42:31.219Z,99.90
2023-04-06T14:44:58.350Z,99.90
2023-04-06T14:47:25.643Z,99.90
2023-04-06T14:49:53.586Z,99.90
2023-04-06T14:52:20.645Z,99.90
2023-04-06T14:54:47.674Z,99.90
2023-04-06T14:57:14.871Z,99.90
2023-04-06T14:59:41.993Z,99.90
2023-04-06T15:02:09.208Z,99.90
2023-04-06T15:04:38.096Z,99.90
2023-04-06T15:07:05.179Z,99.90
2023-04-06T15:09:32.307Z,99.90
2023-04-06T15:11:59.344Z,99.90
2023-04-06T15:14:26.258Z,99.90
2023-04-06T15:16:53.202Z,99.90
2023-04-06T15:19:20.348Z,99.90
2023-04-06T15:21:47.208Z,99.90
2023-04-06T15:24:14.095Z,99.90
2023-04-06T15:26:41.089Z,99.90
2023-04-06T15:29:08.040Z,99.90
2023-04-06T15:31:38.318Z,99.90
2023-04-06T15:34:09.467Z,99.90
2023-04-06T15:36:36.720Z,99.90
2023-04-06T15:39:04.803Z,99.90
2023-04-06T15:41:32.243Z,99.90
2023-04-06T15:43:59.389Z,99.90
2023-04-06T15:46:28.417Z,99.90
2023-04-06T15:48:56.305Z,99.90
2023-04-06T15:51:24.300Z,99.90
2023-04-06T15:53:51.455Z,99.90
2023-04-06T15:56:18.432Z,99.90
2023-04-06T15:58:45.715Z,99.90
2023-04-06T16:01:17.453Z,99.90
2023-04-06T16:03:45.024Z,99.90
2023-04-06T16:06:12.809Z,99.90
2023-04-06T16:08:40.631Z,99.90
2023-04-06T16:11:08.170Z,99.90
2023-04-06T16:13:36.054Z,99.90
2023-04-06T16:16:04.209Z,99.90
2023-04-06T16:18:32.458Z,99.90
2023-04-06T16:21:01.595Z,99.90
2023-04-06T16:23:28.604Z,99.90
2023-04-06T16:25:57.807Z,99.90
2023-04-06T16:28:25.769Z,99.90
2023-04-06T16:30:53.301Z,99.90
2023-04-06T16:33:20.845Z,99.90
2023-04-06T16:35:48.575Z,99.90
2023-04-06T16:38:16.789Z,99.90
2023-04-06T16:40:43.717Z,99.90
2023-04-06T16:43:10.586Z,99.90
2023-04-06T16:45:38.570Z,99.90
2023-04-06T16:48:06.439Z,99.90
2023-04-06T16:50:33.590Z,99.90
2023-04-06T16:53:02.296Z,99.90
2023-04-06T16:55:29.197Z,99.90
2023-04-06T16:57:56.301Z,99.90
2023-04-06T17:00:23.758Z,99.90
2023-04-06T17:02:51.129Z,99.90
2023-04-06T17:05:24.783Z,99.90
2023-04-06T17:07:52.093Z,99.90
2023-04-06T17:10:28.706Z,99.90
2023-04-06T17:13:01.463Z,99.90
2023-04-06T17:15:29.747Z,99.90
2023-04-06T17:17:57.853Z,99.90
2023-04-06T17:20:24.991Z,99.90
2023-04-06T17:22:52.040Z,99.90
2023-04-06T17:25:19.112Z,99.90
2023-04-06T17:27:46.135Z,99.90
2023-04-06T17:30:15.072Z,99.90
2023-04-06T17:32:44.289Z,99.90
2023-04-06T17:35:12.505Z,99.90
2023-04-06T17:37:40.508Z,99.90
2023-04-06T17:40:07.979Z,99.90
2023-04-06T17:42:34.878Z,99.90
2023-04-06T17:45:01.769Z,99.90
2023-04-06T17:47:32.358Z,99.90
2023-04-06T17:50:00.768Z,99.90
2023-04-06T17:52:28.364Z,99.90
2023-04-06T17:54:56.550Z,99.90
2023-04-06T17:57:23.777Z,99.90
2023-04-06T17:59:51.028Z,99.90
2023-04-06T18:02:19.987Z,99.90
2023-04-06T18:04:47.307Z,99.90
2023-04-06T18:07:14.280Z,99.90
2023-04-06T18:09:41.976Z,99.90
2023-04-06T18:12:09.005Z,99.90
2023-04-06T18:14:35.997Z,99.90
2023-04-06T18:17:03.294Z,99.90
2023-04-06T18:19:32.273Z,99.90
2023-04-06T18:21:59.187Z,99.90
2023-04-06T18:24:40.584Z,99.90
2023-04-06T18:27:09.586Z,99.90
2023-04-06T18:29:37.166Z,99.90
2023-04-06T18:32:05.691Z,99.90
2023-04-06T18:34:33.341Z,99.90
2023-04-06T18:37:01.699Z,99.90
2023-04-06T18:39:29.014Z,99.90
2023-04-06T18:41:56.136Z,99.90
2023-04-06T18:44:23.354Z,99.90
2023-04-06T18:46:52.619Z,99.90
2023-04-06T18:49:21.585Z,99.90
2023-04-06T18:51:48.546Z,99.90
2023-04-06T18:54:15.982Z,99.90
2023-04-06T18:56:42.982Z,99.90
2023-04-06T18:59:12.092Z,99.90
2023-04-06T19:01:43.698Z,99.90
2023-04-06T19:04:11.828Z,99.90
2023-04-06T19:06:39.969Z,99.90
2023-04-06T19:09:08.868Z,99.90
2023-04-06T19:11:37.149Z,99.90
2023-04-06T19:14:05.505Z,99.90
2023-04-06T19:16:32.474Z,99.90
2023-04-06T19:19:00.102Z,99.90
2023-04-06T19:21:27.540Z,99.90
2023-04-06T19:23:55.670Z,99.90
2023-04-06T19:26:24.176Z,99.90
2023-04-06T19:28:51.381Z,99.90
2023-04-06T19:31:19.808Z,99.90
2023-04-06T19:33:47.674Z,99.90
2023-04-06T19:36:14.993Z,99.90
2023-04-06T19:38:42.282Z,99.90
2023-04-06T19:41:09.602Z,99.90
2023-04-06T19:43:36.681Z,99.90
2023-04-06T19:46:04.661Z,99.90
2023-04-06T19:48:33.840Z,99.90
2023-04-06T19:51:00.896Z,99.90
2023-04-06T19:53:27.823Z,99.90
2023-04-06T19:55:54.806Z,99.90
2023-04-06T19:58:21.976Z,99.90
2023-04-06T20:00:49.174Z,99.90
2023-04-06T20:03:16.557Z,99.90
2023-04-06T20:05:43.617Z,99.90
2023-04-06T20:08:10.836Z,99.90
2023-04-06T20:10:37.897Z,99.90
2023-04-06T20:13:04.760Z,99.90
2023-04-06T20:15:31.808Z,99.90
2023-04-06T20:17:58.812Z,99.90
2023-04-06T20:20:25.839Z,99.90
2023-04-06T20:22:52.918Z,99.90
2023-04-06T20:25:20.104Z,99.90
2023-04-06T20:27:46.975Z,99.90
2023-04-06T20:30:15.309Z,99.90
2023-04-06T20:32:42.746Z,99.90
2023-04-06T20:35:10.099Z,99.90
2023-04-06T20:37:37.974Z,99.90
2023-04-06T20:40:05.969Z,99.90
2023-04-06T20:42:32.944Z,99.90
2023-04-06T20:45:01.420Z,99.90
2023-04-06T20:47:29.732Z,99.90
2023-04-06T20:49:56.677Z,99.90
2023-04-06T20:52:23.916Z,99.90
2023-04-06T20:54:51.904Z,99.90
2023-04-06T20:57:18.873Z,99.90
2023-04-06T20:59:46.025Z,99.90
2023-04-06T21:02:13.159Z,99.90
2023-04-06T21:04:40.438Z,99.90
2023-04-06T21:07:07.810Z,99.90
2023-04-06T21:09:39.361Z,99.90
2023-04-06T21:12:07.223Z,99.90
2023-04-06T21:14:34.665Z,99.90
2023-04-06T21:17:01.787Z,99.90
2023-04-06T21:19:28.720Z,99.90
2023-04-06T21:21:56.022Z,99.90
2023-04-06T21:24:22.976Z,99.90
2023-04-06T21:26:49.908Z,99.90
2023-04-06T21:29:16.863Z,99.90
2023-04-06T21:31:44.844Z,99.90
2023-04-06T21:34:12.627Z,99.90
2023-04-06T21:36:40.796Z,99.90
2023-04-06T21:39:08.295Z,99.90
2023-04-06T21:41:35.364Z,99.90
2023-04-06T21:44:02.298Z,99.90
2023-04-06T21:46:29.219Z,99.90
2023-04-06T21:48:56.109Z,99.90
2023-04-06T21:51:24.308Z,99.90
2023-04-06T21:53:53.358Z,99.90
2023-04-06T21:56:25.118Z,99.90
2023-04-06T21:58:53.684Z,99.90
2023-04-06T22:01:21.312Z,99.90
2023-04-06T22:03:49.672Z,99.90
2023-04-06T22:06:16.869Z,99.90
2023-04-06T22:08:47.655Z,99.90
2023-04-06T22:11:15.020Z,99.90
2023-04-06T22:13:41.924Z,99.90
2023-04-06T22:16:08.897Z,99.90
2023-04-06T22:18:38.879Z,99.90
2023-04-06T22:21:07.108Z,99.90
2023-04-06T22:23:34.144Z,99.90
2023-04-06T22:26:01.133Z,99.90
2023-04-06T22:28:27.993Z,99.90
2023-04-06T22:30:54.887Z,99.90
2023-04-06T22:33:21.794Z,99.90
2023-04-06T22:35:48.802Z,99.90
2023-04-06T22:38:15.875Z,99.90
2023-04-06T22:40:42.845Z,99.90
2023-04-06T22:43:09.822Z,99.90
2023-04-06T22:45:36.698Z,99.90
2023-04-06T22:48:03.792Z,99.90
2023-04-06T22:50:30.699Z,99.90
2023-04-06T22:52:57.596Z,99.90
2023-04-06T22:55:24.596Z,99.90
2023-04-06T22:57:51.639Z,99.90
2023-04-06T23:00:19.027Z,99.90
2023-04-06T23:02:47.045Z,99.90
2023-04-06T23:05:15.040Z,99.90
2023-04-06T23:07:42.019Z,99.90
2023-04-06T23:10:09.468Z,99.90
2023-04-06T23:12:36.682Z,99.90
2023-04-06T23:15:03.703Z,99.90
2023-04-06T23:17:30.722Z,99.90
2023-04-06T23:19:57.666Z,99.90
2023-04-06T23:22:24.531Z,99.90
2023-04-06T23:24:51.511Z,99.90
2023-04-06T23:27:18.459Z,99.90
2023-04-06T23:29:45.742Z,99.90
2023-04-06T23:32:12.741Z,99.90
2023-04-06T23:34:39.686Z,99.90
2023-04-06T23:37:06.627Z,99.90
2023-04-06T23:39:33.661Z,99.90
2023-04-06T23:42:02.005Z,99.90
2023-04-06T23:44:31.945Z,99.90
2023-04-06T23:46:58.953Z,99.90
2023-04-06T23:49:26.098Z,99.90
2023-04-06T23:51:52.966Z,99.90
2023-04-06T23:54:19.930Z,99.90
2023-04-06T23:56:46.985Z,99.90
2023-04-06T23:59:13.928Z,99.90
